Time;durP1;ratioP1;P1;durP2;ratioP2;P2;SDS_P1;SDS_P2;PMS_P1;PMS_P2;Temp;Humidity;BMP_temperature;BMP_pressure;BME280_temperature;BME280_humidity;BME280_pressure;Samples;Min_cycle;Max_cycle;Signal;HPM_P1;HPM_P2
2021/10/03 00:00:53;;;;;;;44.75;27.25;;;;;;;11.03;100.00;98210.81;5050321;28;20025;-77
2021/10/03 00:03:22;;;;;;;44.45;26.90;;;;;;;11.03;100.00;98208.06;5052265;28;20482;-73
2021/10/03 00:05:51;;;;;;;43.90;26.17;;;;;;;11.12;100.00;98201.66;5050161;28;20116;-77
2021/10/03 00:08:16;;;;;;;46.35;25.20;;;;;;;11.20;100.00;98190.06;5051922;28;20103;-74
2021/10/03 00:10:42;;;;;;;39.65;25.65;;;;;;;11.33;100.00;98190.47;5051847;28;20116;-75
2021/10/03 00:13:08;;;;;;;42.00;25.75;;;;;;;11.36;100.00;98201.66;5051874;28;20025;-74
2021/10/03 00:15:36;;;;;;;43.28;25.33;;;;;;;11.34;100.00;98195.63;5052675;28;20024;-75
2021/10/03 00:18:03;;;;;;;40.47;25.38;;;;;;;11.36;100.00;98187.94;5052121;28;20029;-74
2021/10/03 00:20:29;;;;;;;45.45;26.77;;;;;;;11.24;100.00;98193.03;5044709;28;20033;-74
2021/10/03 00:22:55;;;;;;;45.47;26.25;;;;;;;11.20;100.00;98192.81;5040498;28;20030;-75
2021/10/03 00:25:21;;;;;;;51.75;28.67;;;;;;;11.07;100.00;98193.53;5046203;28;20393;-76
2021/10/03 00:27:47;;;;;;;51.75;27.85;;;;;;;10.99;100.00;98190.63;5045401;28;20025;-74
2021/10/03 00:30:15;;;;;;;52.63;28.25;;;;;;;10.90;100.00;98186.91;5039915;28;20031;-76
2021/10/03 00:32:41;;;;;;;42.08;27.10;;;;;;;10.98;100.00;98188.97;5043828;28;20036;-74
2021/10/03 00:35:07;;;;;;;48.50;27.42;;;;;;;11.01;100.00;98183.75;5051255;28;20108;-73
2021/10/03 00:37:32;;;;;;;45.22;26.88;;;;;;;11.09;100.00;98185.81;5049961;28;20075;-74
2021/10/03 00:39:58;;;;;;;45.00;27.25;;;;;;;11.13;100.00;98186.88;5049760;28;20013;-75
2021/10/03 00:42:23;;;;;;;45.45;26.98;;;;;;;11.08;100.00;98186.13;5051151;28;20020;-74
2021/10/03 00:44:49;;;;;;;43.13;25.05;;;;;;;11.10;100.00;98186.63;5049872;28;20466;-75
2021/10/03 00:47:15;;;;;;;44.35;26.30;;;;;;;11.09;100.00;98190.47;5051615;28;20025;-76
2021/10/03 00:49:43;;;;;;;36.72;22.88;;;;;;;11.07;100.00;98181.75;5051459;28;20029;-75
2021/10/03 00:52:09;;;;;;;38.17;23.10;;;;;;;11.08;100.00;98188.88;5051427;28;20029;-75
2021/10/03 00:54:35;;;;;;;37.70;23.05;;;;;;;11.01;100.00;98174.72;5051517;28;20024;-74
2021/10/03 00:57:02;;;;;;;40.88;22.92;;;;;;;11.05;100.00;98175.75;5039473;28;20028;-74
2021/10/03 00:59:28;;;;;;;41.30;24.95;;;;;;;10.92;100.00;98165.53;5036850;28;21254;-73
2021/10/03 01:01:54;;;;;;;40.03;23.98;;;;;;;10.90;100.00;98175.94;5051000;28;20056;-77
2021/10/03 01:04:19;;;;;;;42.83;23.55;;;;;;;10.88;100.00;98167.19;5056051;28;20525;-75
2021/10/03 01:06:45;;;;;;;38.17;23.80;;;;;;;10.93;100.00;98175.38;5054798;28;20021;-74
2021/10/03 01:09:11;;;;;;;38.15;22.90;;;;;;;10.94;100.00;98171.50;5051537;28;20044;-74
2021/10/03 01:11:37;;;;;;;37.90;22.40;;;;;;;10.98;100.00;98167.91;5050130;28;20072;-75
2021/10/03 01:14:03;;;;;;;39.63;22.30;;;;;;;10.94;100.00;98166.03;5050028;28;20025;-75
2021/10/03 01:16:28;;;;;;;40.05;22.73;;;;;;;10.95;100.00;98165.75;5048462;28;20128;-76
2021/10/03 01:18:56;;;;;;;37.15;22.60;;;;;;;11.03;100.00;98158.81;5081794;28;20025;-75
2021/10/03 01:21:23;;;;;;;35.95;21.80;;;;;;;10.95;100.00;98145.78;5049702;28;20061;-74
2021/10/03 01:23:48;;;;;;;37.45;22.73;;;;;;;11.03;100.00;98156.06;5049493;28;20508;-74
2021/10/03 01:26:14;;;;;;;35.88;20.70;;;;;;;11.11;100.00;98149.94;5049745;28;20037;-75
2021/10/03 01:28:39;;;;;;;33.45;21.08;;;;;;;11.04;100.00;98152.22;5049640;28;20017;-75
2021/10/03 01:31:09;;;;;;;34.58;21.17;;;;;;;11.02;100.00;98151.72;5048978;28;20029;-75
2021/10/03 01:33:36;;;;;;;37.88;23.63;;;;;;;10.93;100.00;98153.47;5038809;28;20110;-75
2021/10/03 01:36:05;;;;;;;36.00;22.77;;;;;;;10.96;100.00;98150.16;5038077;28;20029;-75
2021/10/03 01:38:33;;;;;;;37.28;21.85;;;;;;;10.92;100.00;98141.72;5009168;28;20033;-76
2021/10/03 01:40:58;;;;;;;36.90;22.17;;;;;;;10.99;100.00;98149.56;5010254;28;20475;-74
2021/10/03 01:43:24;;;;;;;32.72;20.85;;;;;;;10.93;100.00;98146.06;5009985;28;20064;-74
2021/10/03 01:45:49;;;;;;;36.35;22.73;;;;;;;10.90;100.00;98151.31;5010552;28;20022;-74
2021/10/03 01:48:18;;;;;;;35.28;21.90;;;;;;;10.87;100.00;98143.69;5008536;28;20037;-76
2021/10/03 01:50:46;;;;;;;35.72;22.30;;;;;;;10.88;100.00;98148.03;5009808;28;20037;-76
2021/10/03 01:53:17;;;;;;;38.70;22.77;;;;;;;10.87;100.00;98138.22;5009820;28;20030;-76
2021/10/03 01:55:44;;;;;;;39.08;22.45;;;;;;;10.91;100.00;98140.06;5009696;28;20037;-75
2021/10/03 01:58:12;;;;;;;37.08;22.92;;;;;;;11.02;100.00;98147.06;5010269;28;20060;-74
2021/10/03 02:00:40;;;;;;;33.45;21.10;;;;;;;10.98;100.00;98147.94;5010244;28;20030;-75
2021/10/03 02:03:07;;;;;;;35.38;21.05;;;;;;;11.04;100.00;98138.53;5012129;28;20034;-74
2021/10/03 02:05:38;;;;;;;37.65;22.00;;;;;;;10.91;100.00;98131.03;5045589;28;20026;-75
2021/10/03 02:08:05;;;;;;;33.22;20.10;;;;;;;10.92;100.00;98132.69;5027784;28;20091;-77
2021/10/03 02:10:31;;;;;;;32.42;20.27;;;;;;;10.88;100.00;98137.09;5042945;28;20044;-75
2021/10/03 02:12:56;;;;;;;38.90;22.63;;;;;;;10.77;100.00;98129.00;5040915;28;20021;-76
2021/10/03 02:15:24;;;;;;;35.80;23.40;;;;;;;10.65;100.00;98131.34;5034800;28;20067;-75
2021/10/03 02:17:49;;;;;;;38.50;22.95;;;;;;;10.51;100.00;98124.97;5042273;28;20511;-76
2021/10/03 02:20:17;;;;;;;39.33;23.48;;;;;;;10.52;100.00;98129.34;5042327;28;20132;-77
2021/10/03 02:22:43;;;;;;;40.47;23.20;;;;;;;10.48;100.00;98131.00;5031940;28;20033;-75
2021/10/03 02:25:10;;;;;;;36.70;21.65;;;;;;;10.51;100.00;98135.91;5033364;28;20032;-76
2021/10/03 02:27:35;;;;;;;38.05;23.05;;;;;;;10.56;100.00;98132.28;5033397;28;20067;-77
2021/10/03 02:30:02;;;;;;;37.45;23.48;;;;;;;10.58;100.00;98135.56;5033091;28;20022;-75
2021/10/03 02:32:28;;;;;;;37.67;22.10;;;;;;;10.65;100.00;98136.81;5032177;28;20033;-75
2021/10/03 02:34:54;;;;;;;32.35;21.10;;;;;;;10.74;100.00;98137.81;5033061;28;20034;-77
2021/10/03 02:37:19;;;;;;;37.83;22.02;;;;;;;10.78;100.00;98129.81;5032859;28;20394;-75
2021/10/03 02:39:45;;;;;;;36.70;21.55;;;;;;;10.83;100.00;98131.69;5032930;28;20359;-76
2021/10/03 02:42:11;;;;;;;36.63;21.20;;;;;;;10.91;100.00;98136.50;5031459;28;20036;-75
2021/10/03 02:44:37;;;;;;;32.50;19.67;;;;;;;10.92;100.00;98127.22;5040064;28;20028;-74
2021/10/03 02:47:03;;;;;;;31.73;20.25;;;;;;;10.90;100.00;98137.63;5039927;28;20037;-74
2021/10/03 02:49:28;;;;;;;30.95;18.92;;;;;;;10.94;100.00;98133.19;5036380;28;20111;-74
2021/10/03 02:51:54;;;;;;;38.17;20.83;;;;;;;10.93;100.00;98120.63;5031610;28;20159;-76
2021/10/03 02:54:19;;;;;;;39.63;20.50;;;;;;;10.94;100.00;98133.19;5032724;28;20399;-74
2021/10/03 02:56:45;;;;;;;33.00;20.90;;;;;;;10.97;100.00;98127.94;5032412;28;20643;-75
2021/10/03 02:59:10;;;;;;;32.85;20.45;;;;;;;10.84;100.00;98117.72;5032383;28;20033;-74
2021/10/03 03:01:35;;;;;;;35.72;20.45;;;;;;;10.83;100.00;98112.56;5032785;28;20103;-75
2021/10/03 03:04:01;;;;;;;34.28;20.77;;;;;;;10.90;100.00;98115.75;5031414;28;20095;-74
2021/10/03 03:06:26;;;;;;;33.33;19.85;;;;;;;10.80;100.00;98113.13;5032261;28;20552;-74
2021/10/03 03:08:52;;;;;;;33.28;20.30;;;;;;;10.69;100.00;98113.25;5032385;28;20433;-74
2021/10/03 03:11:17;;;;;;;30.80;18.83;;;;;;;10.65;100.00;98114.94;5031603;28;20095;-74
2021/10/03 03:13:43;;;;;;;31.58;19.60;;;;;;;10.42;100.00;98118.50;5031058;28;20060;-74
2021/10/03 03:16:09;;;;;;;37.20;21.90;;;;;;;10.34;100.00;98112.84;5030957;28;20116;-74
2021/10/03 03:18:35;;;;;;;37.42;23.05;;;;;;;10.24;100.00;98113.78;5032315;28;20585;-75
2021/10/03 03:21:00;;;;;;;38.30;22.77;;;;;;;10.20;100.00;98112.72;5039932;28;20044;-75
2021/10/03 03:23:26;;;;;;;39.20;22.60;;;;;;;10.14;100.00;98113.88;5042461;28;20409;-75
2021/10/03 03:25:51;;;;;;;33.42;20.55;;;;;;;10.15;100.00;98120.94;5034804;28;20029;-74
2021/10/03 03:28:17;;;;;;;35.95;21.17;;;;;;;10.07;100.00;98119.66;5032224;28;20037;-74
2021/10/03 03:30:43;;;;;;;40.47;22.08;;;;;;;9.99;100.00;98112.06;5032381;28;20034;-75
2021/10/03 03:33:08;;;;;;;35.17;21.17;;;;;;;10.05;100.00;98112.84;5032749;28;20075;-74
2021/10/03 03:35:34;;;;;;;38.00;22.65;;;;;;;9.98;100.00;98115.09;5031854;28;20055;-73
2021/10/03 03:38:00;;;;;;;38.17;22.40;;;;;;;9.96;100.00;98117.31;5032340;28;20029;-75
2021/10/03 03:40:25;;;;;;;35.90;22.08;;;;;;;9.93;100.00;98112.41;5032047;28;20082;-74
2021/10/03 03:42:51;;;;;;;33.15;21.05;;;;;;;9.91;100.00;98109.13;5032131;28;20471;-74
2021/10/03 03:45:16;;;;;;;34.20;20.27;;;;;;;10.03;100.00;98113.13;5032361;28;20573;-73
2021/10/03 03:47:42;;;;;;;29.67;18.33;;;;;;;10.14;100.00;98103.75;5031004;28;20053;-75
2021/10/03 03:50:11;;;;;;;31.75;19.67;;;;;;;10.07;100.00;98110.63;5031842;28;20475;-74
2021/10/03 03:52:37;;;;;;;31.73;19.10;;;;;;;10.08;100.00;98115.00;5031895;28;20021;-75
2021/10/03 03:55:03;;;;;;;33.78;19.15;;;;;;;10.11;100.00;98106.22;5031782;28;20037;-75
2021/10/03 03:57:29;;;;;;;31.67;19.08;;;;;;;10.04;100.00;98095.63;5040558;28;20371;-75
2021/10/03 03:59:54;;;;;;;28.73;18.02;;;;;;;10.12;100.00;98113.28;5040893;28;20040;-76
2021/10/03 04:02:20;;;;;;;27.73;18.83;;;;;;;10.10;100.00;98102.66;5032841;28;20471;-75
2021/10/03 04:04:46;;;;;;;34.30;20.85;;;;;;;9.95;100.00;98097.34;5031710;28;20045;-76
2021/10/03 04:07:11;;;;;;;33.85;19.40;;;;;;;10.11;100.00;98104.31;5032270;28;20026;-75
2021/10/03 04:09:37;;;;;;;33.15;18.45;;;;;;;10.26;100.00;98110.75;5031431;28;20124;-75
2021/10/03 04:12:02;;;;;;;31.42;18.90;;;;;;;10.28;100.00;98108.53;5031574;28;20080;-75
2021/10/03 04:14:28;;;;;;;29.23;18.10;;;;;;;10.35;100.00;98109.81;5031135;28;20136;-75
2021/10/03 04:16:53;;;;;;;35.08;18.77;;;;;;;10.40;100.00;98111.69;5031498;28;20027;-77
2021/10/03 04:19:19;;;;;;;30.25;18.30;;;;;;;10.48;100.00;98103.66;5031692;28;20026;-76
2021/10/03 04:21:44;;;;;;;30.10;16.90;;;;;;;10.47;100.00;98107.50;5031217;28;20049;-74
2021/10/03 04:24:10;;;;;;;28.55;17.50;;;;;;;10.47;100.00;98107.50;5031190;28;20037;-73
2021/10/03 04:26:35;;;;;;;25.92;16.65;;;;;;;10.42;100.00;98104.81;5030804;28;20036;-76
2021/10/03 04:29:01;;;;;;;28.23;17.38;;;;;;;10.35;100.00;98104.34;5029898;28;20030;-74
2021/10/03 04:31:26;;;;;;;26.70;16.67;;;;;;;10.28;100.00;98101.13;5032613;28;20473;-75
2021/10/03 04:33:52;;;;;;;30.25;18.58;;;;;;;10.18;100.00;98113.00;5041062;28;20039;-77
2021/10/03 04:36:17;;;;;;;27.35;17.20;;;;;;;10.19;100.00;98111.91;5039389;28;20107;-77
2021/10/03 04:38:43;;;;;;;24.35;16.15;;;;;;;10.16;100.00;98117.13;5031501;28;20072;-76
2021/10/03 04:41:08;;;;;;;26.45;16.60;;;;;;;10.01;100.00;98111.78;5033024;28;20033;-75
2021/10/03 04:43:34;;;;;;;28.52;18.30;;;;;;;9.91;100.00;98099.03;5031840;28;20135;-77
2021/10/03 04:46:00;;;;;;;28.23;16.90;;;;;;;9.91;100.00;98109.94;5032268;28;20029;-75
2021/10/03 04:48:25;;;;;;;26.60;16.90;;;;;;;9.81;100.00;98112.75;5032020;28;20532;-75
2021/10/03 04:50:51;;;;;;;28.02;17.60;;;;;;;9.86;100.00;98103.72;5032317;28;20041;-76
2021/10/03 04:53:16;;;;;;;28.23;16.25;;;;;;;9.88;100.00;98109.72;5033623;28;20389;-75
2021/10/03 04:55:42;;;;;;;26.10;17.27;;;;;;;9.88;100.00;98116.00;5023812;28;20034;-75
2021/10/03 04:58:07;;;;;;;26.90;15.93;;;;;;;9.85;100.00;98115.75;5015505;28;20033;-74
2021/10/03 05:00:32;;;;;;;25.48;16.98;;;;;;;9.84;100.00;98116.84;5009095;28;20045;-76
2021/10/03 05:02:58;;;;;;;24.52;16.20;;;;;;;9.81;100.00;98111.94;5010811;28;20068;-75
2021/10/03 05:05:23;;;;;;;26.65;15.88;;;;;;;9.85;100.00;98113.00;5010501;28;20026;-75
2021/10/03 05:07:49;;;;;;;23.48;15.70;;;;;;;9.85;100.00;98121.22;5019180;28;20747;-75
2021/10/03 05:10:14;;;;;;;24.70;16.10;;;;;;;9.93;100.00;98115.16;5041192;28;20112;-77
2021/10/03 05:12:40;;;;;;;27.75;16.50;;;;;;;9.92;100.00;98114.31;5040035;28;20032;-78
2021/10/03 05:15:06;;;;;;;25.92;15.23;;;;;;;9.99;100.00;98124.91;5048588;28;20029;-77
2021/10/03 05:17:32;;;;;;;25.50;16.45;;;;;;;10.02;100.00;98103.28;5048256;28;20017;-76
2021/10/03 05:19:57;;;;;;;22.65;15.43;;;;;;;10.21;100.00;98125.28;5048201;28;20398;-77
2021/10/03 05:22:24;;;;;;;26.73;16.10;;;;;;;10.28;100.00;98124.91;5049694;28;20082;-77
2021/10/03 05:24:51;;;;;;;26.35;15.32;;;;;;;10.36;100.00;98122.41;5049586;28;20025;-80
2021/10/03 05:27:17;;;;;;;27.08;14.93;;;;;;;10.51;100.00;98119.50;5048310;28;20021;-73
2021/10/03 05:29:42;;;;;;;21.58;14.95;;;;;;;10.72;100.00;98125.53;5049469;28;20363;-73
2021/10/03 05:32:07;;;;;;;22.80;15.35;;;;;;;10.85;100.00;98133.03;5049523;28;20399;-73
2021/10/03 05:34:33;;;;;;;21.17;14.68;;;;;;;10.90;100.00;98126.69;5049957;28;20553;-74
2021/10/03 05:36:58;;;;;;;21.33;14.82;;;;;;;10.82;100.00;98124.59;5049142;28;20022;-73
2021/10/03 05:39:24;;;;;;;20.58;15.00;;;;;;;10.99;100.00;98130.41;5048002;28;20470;-73
2021/10/03 05:41:49;;;;;;;22.45;15.15;;;;;;;10.91;100.00;98128.31;5049328;28;20048;-73
2021/10/03 05:44:15;;;;;;;19.17;13.30;;;;;;;11.04;100.00;98141.28;5043869;28;20060;-74
2021/10/03 05:46:40;;;;;;;22.80;14.48;;;;;;;11.08;100.00;98128.63;5039524;28;20093;-74
2021/10/03 05:49:05;;;;;;;24.70;14.20;;;;;;;11.17;100.00;98135.09;5039547;28;20017;-74
2021/10/03 05:51:31;;;;;;;24.25;14.25;;;;;;;11.30;100.00;98137.09;5047741;28;20017;-74
2021/10/03 05:53:56;;;;;;;23.70;14.43;;;;;;;11.39;100.00;98138.06;5047893;28;20033;-74
2021/10/03 05:56:22;;;;;;;20.60;13.98;;;;;;;11.44;100.00;98137.16;5034680;28;20037;-76
2021/10/03 05:58:47;;;;;;;24.75;14.88;;;;;;;11.36;100.00;98135.91;5029483;28;20025;-75
2021/10/03 06:01:13;;;;;;;20.35;13.57;;;;;;;11.46;100.00;98140.44;5061301;28;20485;-76
2021/10/03 06:03:39;;;;;;;22.50;14.35;;;;;;;11.41;100.00;98138.56;5029220;28;20045;-75
2021/10/03 06:06:04;;;;;;;23.27;15.57;;;;;;;11.53;100.00;98151.81;5029127;28;20466;-74
2021/10/03 06:08:30;;;;;;;21.92;14.77;;;;;;;11.50;100.00;98149.66;5029265;28;20163;-73
2021/10/03 06:10:55;;;;;;;32.25;19.85;;;;;;;11.59;100.00;98136.97;5029763;28;20402;-75
2021/10/03 06:13:20;;;;;;;20.67;14.35;;;;;;;11.75;100.00;98146.56;5026728;28;20041;-77
2021/10/03 06:15:46;;;;;;;21.67;14.75;;;;;;;11.96;100.00;98147.06;5016933;28;20029;-77
2021/10/03 06:18:13;;;;;;;22.10;14.40;;;;;;;11.98;100.00;98139.34;5031333;28;20108;-74
2021/10/03 06:20:39;;;;;;;20.50;14.10;;;;;;;11.97;100.00;98143.19;5036125;28;20041;-78
2021/10/03 06:23:05;;;;;;;20.98;14.25;;;;;;;12.03;100.00;98139.28;5039272;28;20044;-77
2021/10/03 06:25:31;;;;;;;21.70;13.80;;;;;;;12.09;100.00;98141.63;5044321;28;20037;-77
2021/10/03 06:27:56;;;;;;;25.30;13.50;;;;;;;12.30;100.00;98150.31;5050075;28;20071;-77
2021/10/03 06:30:23;;;;;;;19.35;13.15;;;;;;;12.37;100.00;98144.44;5050156;28;20025;-77
2021/10/03 06:32:48;;;;;;;20.45;12.95;;;;;;;12.61;100.00;98134.91;5049262;28;20116;-78
2021/10/03 06:35:14;;;;;;;23.02;15.30;;;;;;;12.61;100.00;98139.59;5049767;28;20117;-79
2021/10/03 06:37:39;;;;;;;45.83;29.65;;;;;;;12.54;100.00;98145.47;5049330;28;20033;-78
2021/10/03 06:40:06;;;;;;;28.73;18.90;;;;;;;12.42;100.00;98139.69;5047843;28;20023;-79
2021/10/03 06:42:32;;;;;;;19.92;14.18;;;;;;;12.70;100.00;98151.50;5047966;28;20060;-78
2021/10/03 06:44:57;;;;;;;22.30;14.75;;;;;;;13.26;100.00;98153.94;5048934;28;20510;-76
2021/10/03 06:47:23;;;;;;;20.52;14.75;;;;;;;13.38;100.00;98160.53;5047444;28;20025;-76
2021/10/03 06:49:48;;;;;;;20.48;12.80;;;;;;;13.55;99.89;98164.56;5050543;28;20037;-77
2021/10/03 06:52:14;;;;;;;19.63;13.27;;;;;;;13.52;100.00;98166.00;5052487;28;20470;-75
2021/10/03 06:54:39;;;;;;;23.13;13.45;;;;;;;13.61;99.70;98169.63;5051412;28;20087;-75
2021/10/03 06:57:05;;;;;;;19.05;13.52;;;;;;;13.49;99.73;98163.88;5040390;28;20389;-75
2021/10/03 06:59:31;;;;;;;17.58;12.88;;;;;;;13.24;100.00;98170.75;5041502;28;20030;-77
2021/10/03 07:01:59;;;;;;;21.55;13.75;;;;;;;13.30;100.00;98169.50;5040413;28;20025;-78
2021/10/03 07:04:29;;;;;;;20.35;14.45;;;;;;;13.33;100.00;98166.13;5043487;28;20071;-79
2021/10/03 07:06:55;;;;;;;18.33;13.35;;;;;;;13.31;100.00;98171.13;5045632;28;20089;-77
2021/10/03 07:09:21;;;;;;;21.20;14.15;;;;;;;13.41;100.00;98170.09;5040269;28;20109;-78
2021/10/03 07:11:46;;;;;;;19.42;13.50;;;;;;;13.44;100.00;98171.41;5032460;28;20037;-77
2021/10/03 07:14:11;;;;;;;19.02;14.10;;;;;;;13.27;100.00;98170.13;5032548;28;20065;-75
2021/10/03 07:16:37;;;;;;;21.50;14.93;;;;;;;13.26;100.00;98168.47;5033214;28;20025;-78
2021/10/03 07:19:02;;;;;;;17.85;13.02;;;;;;;13.38;100.00;98165.19;5032738;28;20033;-76
2021/10/03 07:21:28;;;;;;;21.77;14.32;;;;;;;13.60;100.00;98168.00;5031785;28;20073;-75
2021/10/03 07:23:53;;;;;;;20.70;14.13;;;;;;;13.77;100.00;98168.16;5027946;28;20399;-76
2021/10/03 07:26:19;;;;;;;26.88;15.50;;;;;;;13.90;98.13;98156.31;5058994;28;20037;-77
2021/10/03 07:28:44;;;;;;;21.85;13.90;;;;;;;15.60;90.39;98162.13;5041825;28;20433;-77
2021/10/03 07:31:10;;;;;;;19.92;13.98;;;;;;;17.36;79.48;98171.84;5044608;28;20029;-76
2021/10/03 07:33:36;;;;;;;25.25;14.90;;;;;;;17.23;76.99;98180.38;5043121;28;20518;-77
2021/10/03 07:36:01;;;;;;;22.98;14.40;;;;;;;17.05;77.25;98177.69;5044109;28;20043;-77
2021/10/03 07:38:27;;;;;;;25.75;16.25;;;;;;;16.56;80.08;98176.41;5043912;28;20033;-80
2021/10/03 07:40:52;;;;;;;22.38;15.68;;;;;;;16.31;81.83;98176.41;5042069;28;20017;-79
2021/10/03 07:43:18;;;;;;;23.02;15.15;;;;;;;15.77;84.53;98169.63;5044195;28;20033;-79
2021/10/03 07:45:44;;;;;;;24.08;16.23;;;;;;;15.44;87.03;98158.22;5048073;28;20486;-78
2021/10/03 07:48:09;;;;;;;26.63;16.85;;;;;;;15.67;86.38;98165.22;5035916;28;20025;-79
2021/10/03 07:50:35;;;;;;;21.38;15.73;;;;;;;16.92;81.73;98167.66;5038374;28;20493;-77
2021/10/03 07:53:00;;;;;;;24.95;15.07;;;;;;;19.01;71.18;98173.69;5043185;28;20048;-79
2021/10/03 07:55:28;;;;;;;19.85;14.60;;;;;;;19.24;70.16;98174.03;5078970;28;20099;-78
2021/10/03 07:57:56;;;;;;;22.70;15.38;;;;;;;18.55;70.80;98162.94;5041005;28;20113;-79
2021/10/03 08:00:21;;;;;;;26.75;15.20;;;;;;;17.32;75.79;98154.28;5039981;28;20037;-79
2021/10/03 08:02:47;;;;;;;22.75;15.93;;;;;;;16.71;79.82;98163.19;5028193;28;20034;-78
2021/10/03 08:05:12;;;;;;;29.75;15.55;;;;;;;16.36;82.37;98167.94;5017390;28;20036;-76
2021/10/03 08:07:38;;;;;;;22.45;15.70;;;;;;;15.95;85.29;98166.53;5030133;28;20478;-75
2021/10/03 08:10:05;;;;;;;20.42;15.40;;;;;;;16.36;83.50;98148.63;5038091;28;20064;-76
2021/10/03 08:12:31;;;;;;;21.33;14.82;;;;;;;18.17;75.99;98163.94;5036137;28;20112;-78
2021/10/03 08:14:57;;;;;;;20.40;14.30;;;;;;;19.26;69.75;98163.41;5032263;28;20040;-78
2021/10/03 08:17:22;;;;;;;18.77;13.35;;;;;;;18.95;70.35;98168.72;5032322;28;20724;-77
2021/10/03 08:19:48;;;;;;;17.27;12.77;;;;;;;17.77;75.45;98162.81;5031801;28;20159;-78
2021/10/03 08:22:14;;;;;;;20.83;14.48;;;;;;;16.96;80.02;98163.09;5066382;28;20025;-82
2021/10/03 08:24:40;;;;;;;27.15;17.33;;;;;;;16.71;82.12;98154.91;5031498;28;20095;-78
2021/10/03 08:27:05;;;;;;;21.77;16.02;;;;;;;16.52;83.64;98152.50;5033077;28;20532;-80
2021/10/03 08:29:31;;;;;;;23.52;16.60;;;;;;;16.49;84.30;98158.66;5027713;28;20030;-78
2021/10/03 08:31:56;;;;;;;21.98;16.60;;;;;;;16.96;82.33;98160.34;5012408;28;20108;-78
2021/10/03 08:34:25;;;;;;;22.35;16.13;;;;;;;17.10;81.38;98163.66;5014252;28;20022;-75
2021/10/03 08:36:54;;;;;;;26.80;17.05;;;;;;;17.35;80.79;98167.47;5047577;28;20026;-80
2021/10/03 08:39:20;;;;;;;22.67;15.68;;;;;;;17.14;81.61;98170.16;5012130;28;20053;-79
2021/10/03 08:41:46;;;;;;;25.73;16.75;;;;;;;17.27;82.59;98170.25;5013817;28;20018;-78
2021/10/03 08:44:12;;;;;;;25.80;17.63;;;;;;;16.98;82.75;98160.81;5018524;28;20030;-84
2021/10/03 08:46:40;;;;;;;25.42;16.20;;;;;;;17.11;82.08;98162.53;5030466;28;20026;-83
2021/10/03 08:49:05;;;;;;;22.52;16.30;;;;;;;17.18;82.88;98163.97;5028522;28;20038;-84
2021/10/03 08:51:31;;;;;;;22.70;15.80;;;;;;;17.25;82.05;98159.56;5051315;28;20029;-80
2021/10/03 08:53:57;;;;;;;23.45;15.48;;;;;;;17.56;80.06;98171.09;5064920;28;20025;-79
2021/10/03 08:56:24;;;;;;;20.38;14.82;;;;;;;17.87;78.92;98165.19;5029800;28;20060;-79
2021/10/03 08:58:51;;;;;;;21.52;14.10;;;;;;;17.92;78.83;98170.50;5028690;28;20029;-78
2021/10/03 09:01:20;;;;;;;19.83;14.32;;;;;;;17.64;80.14;98158.34;5029028;28;20033;-80
2021/10/03 09:03:46;;;;;;;18.55;13.63;;;;;;;17.47;81.17;98158.44;5024227;28;20029;-79
2021/10/03 09:06:12;;;;;;;20.45;14.10;;;;;;;17.33;81.17;98160.63;5033909;28;20099;-78
2021/10/03 09:08:49;;;;;;;23.38;15.05;;;;;;;17.08;82.82;98163.19;5036486;28;20025;-79
2021/10/03 09:11:18;;;;;;;19.88;15.13;;;;;;;16.79;84.92;98168.69;5041256;28;20079;-80
2021/10/03 09:13:49;;;;;;;22.40;15.00;;;;;;;16.72;85.72;98153.78;5031445;28;20387;-79
2021/10/03 09:16:28;;;;;;;21.63;14.50;;;;;;;16.83;87.28;98158.59;5052401;28;20026;-77
2021/10/03 09:19:00;;;;;;;23.58;14.73;;;;;;;16.86;86.59;98152.41;5054888;28;20029;-77
2021/10/03 09:21:36;;;;;;;22.73;16.23;;;;;;;16.07;90.12;98136.34;5036168;28;20045;-79
2021/10/03 09:24:08;;;;;;;31.15;17.15;;;;;;;16.67;89.99;98160.28;5041091;28;20036;-81
2021/10/03 09:26:36;;;;;;;23.25;16.00;;;;;;;16.84;89.05;98165.75;5042233;28;20482;-78
2021/10/03 09:29:20;;;;;;;23.38;15.88;;;;;;;16.92;88.57;98167.66;5039724;28;20017;-83
2021/10/03 09:32:04;;;;;;;22.25;14.45;;;;;;;17.19;88.77;98168.38;5038090;28;20100;-78
2021/10/03 09:34:31;;;;;;;18.77;13.27;;;;;;;17.63;87.44;98142.91;5062877;28;20398;-80
2021/10/03 09:36:58;;;;;;;17.35;12.50;;;;;;;18.76;81.98;98169.25;5030538;28;20060;-79
2021/10/03 09:39:23;;;;;;;17.42;11.70;;;;;;;18.32;84.79;98167.25;5031159;28;20030;-77
2021/10/03 09:41:49;;;;;;;19.88;11.73;;;;;;;17.78;86.92;98171.94;5029342;28;20021;-78
2021/10/03 09:44:17;;;;;;;16.55;11.82;;;;;;;18.18;87.09;98167.53;5029114;28;20030;-77
2021/10/03 09:46:45;;;;;;;21.08;11.55;;;;;;;18.51;85.35;98164.81;5030639;28;20096;-78
2021/10/03 09:49:17;;;;;;;20.45;11.05;;;;;;;18.38;85.95;98160.34;5029570;28;20029;-78
2021/10/03 09:51:45;;;;;;;15.70;10.15;;;;;;;18.37;88.70;98156.75;5052174;28;20029;-79
2021/10/03 09:54:13;;;;;;;12.18;9.50;;;;;;;18.03;90.69;98141.28;5027559;28;20030;-78
2021/10/03 09:56:39;;;;;;;12.43;8.45;;;;;;;18.19;91.13;98161.66;5030797;28;20025;-78
2021/10/03 09:59:05;;;;;;;13.30;8.38;;;;;;;18.34;90.83;98162.97;5026759;28;20026;-79
2021/10/03 10:01:38;;;;;;;13.45;9.63;;;;;;;18.00;92.38;98169.63;5032819;28;20021;-77
2021/10/03 10:04:07;;;;;;;11.45;7.80;;;;;;;17.96;93.64;98165.09;5034386;28;20083;-78
2021/10/03 10:06:34;;;;;;;12.23;8.57;;;;;;;17.99;93.79;98162.47;5039632;28;20360;-77
2021/10/03 10:09:06;;;;;;;10.95;8.18;;;;;;;17.86;95.18;98160.78;5030487;28;20022;-81
2021/10/03 10:11:38;;;;;;;11.50;7.75;;;;;;;18.02;94.88;98161.78;5031339;28;20195;-79
2021/10/03 10:14:04;;;;;;;12.82;7.80;;;;;;;18.20;93.64;98167.97;5031812;28;20025;-77
2021/10/03 10:16:46;;;;;;;12.82;7.25;;;;;;;17.91;95.12;98155.06;5033962;28;20017;-77
2021/10/03 10:19:35;;;;;;;21.35;7.60;;;;;;;17.96;95.97;98160.38;5031777;28;20057;-80
2021/10/03 10:22:14;;;;;;;15.20;6.90;;;;;;;17.83;97.83;98160.63;5030474;28;20148;-81
2021/10/03 10:27:32;;;;;;;8.52;6.25;;;;;;;18.19;95.60;98167.19;5042950;28;20076;-78
2021/10/03 10:30:05;;;;;;;10.77;7.07;;;;;;;18.09;96.37;98172.31;5040159;28;20056;-78
2021/10/03 10:32:56;;;;;;;8.02;6.43;;;;;;;18.01;97.73;98171.25;5043672;28;20061;-78
2021/10/03 10:35:25;;;;;;;10.25;6.55;;;;;;;18.06;97.58;98167.47;5043626;28;20120;-77
2021/10/03 10:37:51;;;;;;;8.98;6.40;;;;;;;17.96;99.02;98167.88;5071475;28;20363;-78
2021/10/03 10:40:22;;;;;;;9.20;7.05;;;;;;;17.94;100.00;98165.47;5041573;28;20025;-80
2021/10/03 10:42:48;;;;;;;11.65;7.18;;;;;;;17.97;99.73;98153.72;5040748;28;20455;-76
2021/10/03 10:45:40;;;;;;;10.43;7.10;;;;;;;18.31;98.60;98160.06;5042726;28;20154;-78
2021/10/03 10:48:09;;;;;;;9.80;6.80;;;;;;;18.59;97.03;98158.34;5034722;28;20072;-80
2021/10/03 10:50:43;;;;;;;10.35;7.55;;;;;;;18.56;96.20;98161.81;5041698;28;20029;-79
2021/10/03 10:53:24;;;;;;;10.30;7.55;;;;;;;18.43;97.57;98160.09;5044162;28;20424;-78
2021/10/03 10:56:11;;;;;;;27.92;18.70;;;;;;;18.60;96.25;98159.97;5041512;28;20032;-78
2021/10/03 10:58:52;;;;;;;9.18;7.18;;;;;;;18.53;96.36;98149.44;5046543;28;20108;-77
2021/10/03 11:01:29;;;;;;;9.52;7.32;;;;;;;18.32;98.14;98156.16;5044107;28;20029;-79
2021/10/03 11:03:59;;;;;;;11.00;7.85;;;;;;;18.41;98.46;98154.09;5032871;28;20034;-78
2021/10/03 11:06:27;;;;;;;11.13;7.45;;;;;;;18.04;100.00;98145.63;5013672;28;20040;-81
2021/10/03 11:09:09;;;;;;;9.52;7.13;;;;;;;18.04;100.00;98147.63;5014334;28;20026;-81
2021/10/03 11:11:54;;;;;;;12.57;7.28;;;;;;;18.20;100.00;98135.56;5025775;28;20068;-78
2021/10/03 11:14:23;;;;;;;11.05;7.10;;;;;;;18.14;100.00;98139.69;5022694;28;20093;-82
2021/10/03 11:16:52;;;;;;;9.35;7.03;;;;;;;18.24;100.00;98141.22;5034311;28;20101;-82